Terminal Aerodrome Forecast
Issued by NWS

Current Version | Previous Version | Text Only | Print | Product List | Glossary On
Versions: 1 2 3 4 5 6 7 8 9 10 11 12 13 14 15 16 17 18 19 20 21 22 23 24 25 26
000
FTUS42 KFFC 222324
TAFRYY
TAF
KRYY 222324Z 2300/2324 12009KT 3SM -RA BR OVC005
     FM230300 11008KT 2SM -DZ BR OVC004
     FM230800 12008KT 1/2SM -DZ FG OVC002
     FM231500 11007KT 2SM -SHRA BR OVC008
     FM231900 13008KT 5SM -SHRA BR OVC012
      AMD NOT SKED 2304/2312=

USA.gov is the U.S. government's official web portal to all federal, state and local government web resources and services.